Atmospheric History
12/06/2017 18:43  to  12/7/2017 18:43
Change End Date:
To complete the export process:
1) Select all of the data below
2) Copy the data to the clipboard
3) Open a word processor such as Notepad
4) Paste the data into the word processor
5) Save the file

Date/Time (MST), AirTemp, RH, Dewpoint ,AvgWindSpeed, GustWindSpeed, WindDirection, PrecipType, PrecipIntensity, PrecipAccumulation, PrecipRate
12/07/2017 18:39, 39, 37, 15 ,11, 19, SW, None, None, ,  
12/07/2017 18:36, 38, 38, 15 ,13, 19, SW, None, None, ,  
12/07/2017 18:29, 37, 39, 15 ,16, 21, SW, None, None, ,  
12/07/2017 18:21, 37, 39, 15 ,15, 18, SW, None, None, ,  
12/07/2017 18:19, 37, 39, 15 ,14, 18, SW, None, None, ,  
12/07/2017 18:09, 37, 38, 14 ,16, 18, SW, None, None, ,  
12/07/2017 18:06, 38, 38, 15 ,12, 15, SW, None, None, ,  
12/07/2017 17:58, 37, 38, 14 ,11, 14, SW, None, None, ,  
12/07/2017 17:51, 38, 37, 14 ,12, 16, SW, None, None, ,  
12/07/2017 17:48, 38, 37, 14 ,13, 16, SW, None, None, ,  
12/07/2017 17:38, 39, 34, 14 ,12, 20, SW, None, None, ,  
12/07/2017 17:36, 40, 34, 14 ,14, 20, SW, None, None, ,  
12/07/2017 17:28, 41, 33, 15 ,15, 21, SW, None, None, ,  
12/07/2017 17:21, 40, 34, 15 ,17, 21, SW, None, None, ,  
12/07/2017 17:18, 40, 34, 15 ,17, 21, SW, None, None, ,  
12/07/2017 17:08, 39, 36, 15 ,16, 20, SW, None, None, ,  
12/07/2017 17:06, 40, 36, 15 ,16, 19, SW, None, None, ,  
12/07/2017 16:58, 39, 35, 15 ,14, 19, SW, None, None, ,  
12/07/2017 16:51, 40, 34, 14 ,12, 22, W, None, None, ,  
12/07/2017 16:48, 40, 34, 15 ,15, 22, W, None, None, ,  
12/07/2017 16:38, 40, 34, 15 ,12, 19, W, None, None, ,  
12/07/2017 16:28, 41, 34, 15 ,14, 20, W, None, None, ,  
12/07/2017 16:21, 41, 34, 15 ,12, 21, SW, None, None, ,  
12/07/2017 16:18, 42, 33, 15 ,14, 21, W, None, None, ,  
12/07/2017 16:08, 42, 33, 15 ,11, 17, W, None, None, ,  
12/07/2017 16:06, 42, 33, 15 ,11, 17, W, None, None, ,  
12/07/2017 15:58, 42, 33, 15 ,11, 17, W, None, None, ,  
12/07/2017 15:51, 43, 32, 15 ,12, 22, W, None, None, ,  
12/07/2017 15:48, 44, 31, 15 ,11, 22, W, None, None, ,  
12/07/2017 15:38, 44, 30, 15 ,14, 22, W, None, None, ,  
12/07/2017 15:36, 44, 30, 16 ,15, 22, W, None, None, ,  
12/07/2017 15:28, 45, 30, 16 ,11, 17, W, None, None, ,  
12/07/2017 15:21, 45, 30, 16 ,14, 17, W, None, None, ,  
12/07/2017 15:18, 45, 30, 16 ,12, 19, W, None, None, ,  
12/07/2017 15:07, 46, 29, 16 ,16, 24, W, None, None, ,  
12/07/2017 15:06, 46, 29, 16 ,14, 24, W, None, None, ,  
12/07/2017 14:57, 46, 28, 16 ,20, 24, W, None, None, ,  
12/07/2017 14:51, 46, 28, 16 ,16, 22, W, None, None, ,  
12/07/2017 14:47, 47, 28, 16 ,17, 21, W, None, None, ,  
12/07/2017 14:37, 47, 28, 16 ,11, 17, W, None, None, ,  
12/07/2017 14:36, 47, 28, 16 ,10, 16, W, None, None, ,  
12/07/2017 14:27, 47, 29, 16 ,9, 17, W, None, None, ,  
12/07/2017 14:22, 46, 29, 16 ,9, 16, W, None, None, ,  
12/07/2017 14:17, 46, 29, 16 ,10, 16, SW, None, None, ,  
12/07/2017 14:07, 46, 29, 16 ,9, 16, SW, None, None, ,  
12/07/2017 14:06, 46, 29, 16 ,10, 16, SW, None, None, ,  
12/07/2017 13:57, 46, 28, 15 ,14, 19, SW, None, None, ,  
12/07/2017 13:51, 46, 28, 15 ,16, 19, SW, None, None, ,  
12/07/2017 13:47, 45, 28, 15 ,16, 23, SW, None, None, ,  
12/07/2017 13:37, 45, 28, 14 ,14, 22, W, None, None, ,  
12/07/2017 13:36, 45, 28, 14 ,15, 24, W, None, None, ,  
12/07/2017 13:27, 45, 28, 15 ,16, 24, W, None, None, ,  
12/07/2017 13:21, 45, 28, 14 ,18, 25, W, None, None, ,  
12/07/2017 13:17, 45, 28, 14 ,20, 25, W, None, None, ,  
12/07/2017 13:07, 45, 28, 15 ,14, 20, W, None, None, ,  
12/07/2017 13:06, 45, 28, 15 ,14, 20, W, None, None, ,  
12/07/2017 12:57, 45, 28, 15 ,14, 24, W, None, None, ,  
12/07/2017 12:51, 45, 28, 15 ,15, 24, W, None, None, ,  
12/07/2017 12:47, 46, 28, 16 ,17, 23, W, None, None, ,  
12/07/2017 12:37, 45, 29, 15 ,15, 20, W, None, None, ,  
12/07/2017 12:36, 45, 29, 15 ,14, 20, W, None, None, ,  
12/07/2017 12:27, 45, 30, 16 ,13, 17, W, None, None, ,  
12/07/2017 12:21, 45, 30, 16 ,12, 17, W, None, None, ,  
12/07/2017 12:16, 45, 31, 16 ,10, 17, W, None, None, ,  
12/07/2017 12:08, 44, 30, 15 ,10, 16, W, None, None, ,  
12/07/2017 12:06, 44, 30, 15 ,11, 16, W, None, None, ,  
12/07/2017 11:56, 45, 30, 16 ,9, 16, W, None, None, ,  
12/07/2017 11:51, 45, 30, 16 ,12, 15, W, None, None, ,  
12/07/2017 11:46, 46, 30, 17 ,7, 12, W, None, None, ,  
12/07/2017 11:37, 45, 32, 17 ,7, 13, W, None, None, ,  
12/07/2017 11:36, 45, 32, 17 ,7, 13, W, None, None, ,  
12/07/2017 11:26, 44, 32, 17 ,11, 15, W, None, None, ,  
12/07/2017 11:21, 44, 33, 17 ,12, 17, SW, None, None, ,  
12/07/2017 11:16, 44, 33, 17 ,13, 17, W, None, None, ,  
12/07/2017 11:06, 42, 34, 17 ,12, 22, W, None, None, ,  
12/07/2017 11:06, 42, 34, 17 ,12, 22, W, None, None, ,  
Change End Date:

Copyright © 1998-2015 Vaisala, Inc.
All Rights Reserved
Send comments about the data to:
SCAN Web ® is a registered trademark of Vaisala, Inc.
SCAN Web Version 6.0